Time;durP1;ratioP1;P1;durP2;ratioP2;P2;SDS_P1;SDS_P2;PMS_P1;PMS_P2;Temp;Humidity;BMP_temperature;BMP_pressure;BME280_temperature;BME280_humidity;BME280_pressure;Samples;Min_cycle;Max_cycle;Signal;HPM_P1;HPM_P2
2021/01/18 00:00:24;;;;;;;97.70;40.93;;;;;;;;;;732056;188;919245;-65
2021/01/18 00:02:50;;;;;;;99.33;39.80;;;;;;;;;;736921;187;916218;-66
2021/01/18 00:05:15;;;;;;;94.93;45.63;;;;;;;;;;735759;188;915755;-65
2021/01/18 00:07:44;;;;;;;106.87;41.63;;;;;;;;;;736912;188;628194;-65
2021/01/18 00:10:11;;;;;;;79.65;37.92;;;;;;;;;;738191;188;918849;-66
2021/01/18 00:12:37;;;;;;;103.63;39.63;;;;;;;;;;736017;188;919490;-66
2021/01/18 00:15:03;;;;;;;110.57;42.27;;;;;;;;;;735553;188;956881;-66
2021/01/18 00:17:30;;;;;;;100.97;41.33;;;;;;;;;;726637;188;2014971;-64
2021/01/18 00:19:56;;;;;;;119.10;40.03;;;;;;;;;;731780;189;1020545;-65
2021/01/18 00:22:22;;;;;;;83.37;38.00;;;;;;;;;;737865;188;919233;-65
2021/01/18 00:24:47;;;;;;;81.80;34.33;;;;;;;;;;731763;187;919287;-64
2021/01/18 00:27:13;;;;;;;99.50;38.40;;;;;;;;;;738829;188;918707;-65
2021/01/18 00:29:39;;;;;;;78.60;34.33;;;;;;;;;;729572;188;916923;-67
2021/01/18 00:32:05;;;;;;;87.00;36.28;;;;;;;;;;734196;188;918242;-63
2021/01/18 00:34:31;;;;;;;96.53;38.80;;;;;;;;;;737909;188;913628;-66
2021/01/18 00:36:57;;;;;;;81.93;37.10;;;;;;;;;;734241;188;918966;-66
2021/01/18 00:39:23;;;;;;;99.55;39.60;;;;;;;;;;732466;188;993216;-66
2021/01/18 00:41:48;;;;;;;84.23;35.17;;;;;;;;;;732481;188;918416;-63
2021/01/18 00:44:14;;;;;;;108.73;39.40;;;;;;;;;;736084;189;941690;-65
2021/01/18 00:46:40;;;;;;;99.57;37.43;;;;;;;;;;737920;188;918749;-66
2021/01/18 00:49:06;;;;;;;116.60;40.60;;;;;;;;;;732378;188;918257;-66
2021/01/18 00:51:35;;;;;;;71.13;35.70;;;;;;;;;;738437;188;918114;-66
2021/01/18 00:54:00;;;;;;;93.30;40.53;;;;;;;;;;731967;188;918917;-66
2021/01/18 00:56:26;;;;;;;105.77;39.10;;;;;;;;;;734806;189;919170;-65
2021/01/18 00:58:52;;;;;;;111.05;36.30;;;;;;;;;;742897;188;918404;-66
2021/01/18 01:01:18;;;;;;;89.07;34.90;;;;;;;;;;733140;188;918387;-66
2021/01/18 01:03:44;;;;;;;95.80;40.97;;;;;;;;;;734727;188;918672;-65
2021/01/18 01:06:10;;;;;;;74.37;34.10;;;;;;;;;;730591;188;1268505;-65
2021/01/18 01:08:36;;;;;;;119.83;37.67;;;;;;;;;;737413;190;922901;-66
2021/01/18 01:11:01;;;;;;;95.43;37.10;;;;;;;;;;735760;188;918991;-64
2021/01/18 01:13:27;;;;;;;83.07;41.40;;;;;;;;;;736820;188;918439;-64
2021/01/18 01:15:53;;;;;;;74.70;39.50;;;;;;;;;;738678;189;918685;-66
2021/01/18 01:18:19;;;;;;;91.53;39.00;;;;;;;;;;734235;188;919896;-66
2021/01/18 01:20:45;;;;;;;93.30;40.40;;;;;;;;;;733372;188;1044074;-65
2021/01/18 01:23:11;;;;;;;87.15;36.60;;;;;;;;;;739347;188;918916;-65
2021/01/18 01:25:36;;;;;;;96.20;37.17;;;;;;;;;;733866;188;1067396;-66
2021/01/18 01:28:02;;;;;;;88.17;36.83;;;;;;;;;;734446;188;918100;-65
2021/01/18 01:30:28;;;;;;;120.87;45.80;;;;;;;;;;737312;188;918755;-66
2021/01/18 01:32:54;;;;;;;84.90;37.70;;;;;;;;;;738363;188;919080;-64
2021/01/18 01:35:20;;;;;;;87.97;40.83;;;;;;;;;;735046;188;918924;-65
2021/01/18 01:37:46;;;;;;;94.45;38.58;;;;;;;;;;729871;188;918433;-64
2021/01/18 01:40:12;;;;;;;96.73;38.73;;;;;;;;;;732940;190;919892;-65
2021/01/18 01:42:38;;;;;;;101.70;40.33;;;;;;;;;;734451;188;918573;-66
2021/01/18 01:45:06;;;;;;;86.03;37.85;;;;;;;;;;734043;188;918982;-66
2021/01/18 01:47:31;;;;;;;99.70;37.80;;;;;;;;;;740250;188;943189;-66
2021/01/18 01:49:58;;;;;;;81.40;36.03;;;;;;;;;;730775;188;1021155;-65
2021/01/18 01:52:24;;;;;;;95.23;39.30;;;;;;;;;;728156;188;919168;-65
2021/01/18 01:54:50;;;;;;;97.80;37.40;;;;;;;;;;738956;187;918386;-66
2021/01/18 01:57:16;;;;;;;95.77;40.33;;;;;;;;;;734089;188;918885;-65
2021/01/18 01:59:42;;;;;;;99.27;41.90;;;;;;;;;;734240;188;926578;-65
2021/01/18 02:02:08;;;;;;;97.93;41.13;;;;;;;;;;730143;188;924268;-64
2021/01/18 02:04:34;;;;;;;89.73;41.47;;;;;;;;;;740747;187;917625;-65
2021/01/18 02:06:59;;;;;;;107.28;41.25;;;;;;;;;;733473;188;930325;-66
2021/01/18 02:09:25;;;;;;;84.10;43.77;;;;;;;;;;735977;188;918528;-64
2021/01/18 02:11:52;;;;;;;100.23;41.03;;;;;;;;;;739089;187;914314;-63
2021/01/18 02:14:29;;;;;;;107.68;40.30;;;;;;;;;;734851;188;918337;-66
2021/01/18 02:16:55;;;;;;;109.27;37.70;;;;;;;;;;737267;188;919120;-66
2021/01/18 02:19:26;;;;;;;103.00;42.53;;;;;;;;;;734185;188;971597;-66
2021/01/18 02:21:58;;;;;;;97.43;46.57;;;;;;;;;;737440;188;917963;-66
2021/01/18 02:24:24;;;;;;;98.27;45.40;;;;;;;;;;737026;187;918354;-64
2021/01/18 02:26:51;;;;;;;109.40;45.23;;;;;;;;;;732992;188;918934;-65
2021/01/18 02:29:17;;;;;;;117.20;42.53;;;;;;;;;;731382;188;918775;-65
2021/01/18 02:31:46;;;;;;;111.37;43.53;;;;;;;;;;739150;188;918893;-64
2021/01/18 02:34:18;;;;;;;102.73;43.17;;;;;;;;;;731181;188;919858;-64
2021/01/18 02:36:44;;;;;;;87.97;33.37;;;;;;;;;;733454;188;918565;-65
2021/01/18 02:39:14;;;;;;;119.27;43.37;;;;;;;;;;730197;188;918908;-65
2021/01/18 02:41:50;;;;;;;93.50;39.35;;;;;;;;;;740096;187;918270;-65
2021/01/18 02:44:16;;;;;;;82.37;33.47;;;;;;;;;;732638;188;918046;-66
2021/01/18 02:46:41;;;;;;;99.90;41.57;;;;;;;;;;734024;188;919962;-64
2021/01/18 02:49:07;;;;;;;94.72;40.65;;;;;;;;;;731451;188;918433;-65
2021/01/18 02:51:33;;;;;;;95.50;41.87;;;;;;;;;;737822;188;915788;-66
2021/01/18 02:53:59;;;;;;;99.93;42.57;;;;;;;;;;732535;188;918886;-64
2021/01/18 02:56:25;;;;;;;77.53;36.20;;;;;;;;;;732394;188;918878;-66
2021/01/18 02:58:51;;;;;;;98.63;42.40;;;;;;;;;;735663;188;919035;-64
2021/01/18 03:01:19;;;;;;;99.40;43.70;;;;;;;;;;734987;188;918046;-65
2021/01/18 03:03:46;;;;;;;92.00;39.90;;;;;;;;;;733738;190;919289;-65
2021/01/18 03:06:16;;;;;;;90.60;38.97;;;;;;;;;;734040;187;919136;-63
2021/01/18 03:08:41;;;;;;;75.43;37.37;;;;;;;;;;740139;189;918161;-65
2021/01/18 03:11:07;;;;;;;116.10;46.23;;;;;;;;;;732610;188;919240;-64
2021/01/18 03:13:33;;;;;;;86.37;36.10;;;;;;;;;;734369;188;919855;-66
2021/01/18 03:15:59;;;;;;;99.13;41.43;;;;;;;;;;735980;188;954453;-65
2021/01/18 03:18:25;;;;;;;97.40;41.47;;;;;;;;;;725209;188;919092;-65
2021/01/18 03:20:51;;;;;;;83.80;39.10;;;;;;;;;;731960;188;931579;-65
2021/01/18 03:23:16;;;;;;;110.72;43.08;;;;;;;;;;735032;188;919684;-64
2021/01/18 03:25:46;;;;;;;102.10;41.23;;;;;;;;;;729037;189;918858;-65
2021/01/18 03:28:12;;;;;;;93.75;43.15;;;;;;;;;;734162;188;918785;-65
2021/01/18 03:30:38;;;;;;;97.13;42.70;;;;;;;;;;733112;188;914596;-65
2021/01/18 03:33:04;;;;;;;119.53;42.33;;;;;;;;;;744877;188;915016;-64
2021/01/18 03:35:30;;;;;;;127.45;45.10;;;;;;;;;;732079;188;918743;-66
2021/01/18 03:37:56;;;;;;;91.07;45.40;;;;;;;;;;735564;188;918684;-65
2021/01/18 03:40:22;;;;;;;123.03;37.20;;;;;;;;;;735847;188;919735;-65
2021/01/18 03:42:54;;;;;;;101.87;35.70;;;;;;;;;;742730;188;917999;-66
2021/01/18 03:45:20;;;;;;;114.90;46.43;;;;;;;;;;707601;194;918860;-65
2021/01/18 03:47:46;;;;;;;120.30;42.95;;;;;;;;;;709883;194;919546;-65
2021/01/18 03:50:12;;;;;;;110.43;47.20;;;;;;;;;;710520;196;928642;-66
2021/01/18 03:52:38;;;;;;;105.03;42.10;;;;;;;;;;731509;188;919065;-63
2021/01/18 03:55:04;;;;;;;112.57;46.67;;;;;;;;;;735689;188;919034;-64
2021/01/18 03:57:31;;;;;;;111.15;44.20;;;;;;;;;;736604;188;919098;-64
2021/01/18 03:59:57;;;;;;;93.90;41.13;;;;;;;;;;735773;188;918662;-65
2021/01/18 04:02:23;;;;;;;109.00;43.03;;;;;;;;;;735846;188;919173;-64
2021/01/18 04:04:48;;;;;;;100.90;42.93;;;;;;;;;;739738;188;624342;-66
2021/01/18 04:07:14;;;;;;;93.20;34.10;;;;;;;;;;734641;188;915777;-63
2021/01/18 04:09:40;;;;;;;102.77;36.93;;;;;;;;;;731365;189;918535;-65
2021/01/18 04:12:06;;;;;;;76.90;37.47;;;;;;;;;;731403;188;919142;-65
2021/01/18 04:14:32;;;;;;;85.23;35.70;;;;;;;;;;739861;189;918511;-64
2021/01/18 04:16:58;;;;;;;98.80;36.27;;;;;;;;;;734909;187;918711;-65
2021/01/18 04:19:24;;;;;;;108.43;40.10;;;;;;;;;;736196;187;920297;-63
2021/01/18 04:21:50;;;;;;;85.90;36.23;;;;;;;;;;738436;188;914586;-62
2021/01/18 04:24:16;;;;;;;114.57;44.33;;;;;;;;;;733586;188;1233561;-64
2021/01/18 04:26:42;;;;;;;117.03;41.63;;;;;;;;;;735142;188;938813;-65
2021/01/18 04:29:07;;;;;;;92.17;44.07;;;;;;;;;;731360;190;918808;-64
2021/01/18 04:31:33;;;;;;;111.27;49.00;;;;;;;;;;739130;189;919185;-66
2021/01/18 04:33:59;;;;;;;90.03;42.00;;;;;;;;;;730275;188;1020896;-65
2021/01/18 04:36:25;;;;;;;93.30;42.73;;;;;;;;;;732923;188;918886;-65
2021/01/18 04:38:51;;;;;;;94.77;41.73;;;;;;;;;;739214;188;917733;-64
2021/01/18 04:41:17;;;;;;;110.13;47.67;;;;;;;;;;737058;188;918524;-65
2021/01/18 04:43:43;;;;;;;102.30;43.28;;;;;;;;;;732125;188;1275222;-64
2021/01/18 04:46:09;;;;;;;126.63;46.60;;;;;;;;;;739230;188;918830;-65
2021/01/18 04:48:34;;;;;;;118.70;43.00;;;;;;;;;;732042;188;919106;-65
2021/01/18 04:51:00;;;;;;;133.63;52.00;;;;;;;;;;734699;188;918672;-66
2021/01/18 04:53:26;;;;;;;102.20;45.85;;;;;;;;;;732726;188;919647;-63
2021/01/18 04:56:08;;;;;;;125.93;48.27;;;;;;;;;;732123;188;916236;-65
2021/01/18 04:58:34;;;;;;;119.90;46.63;;;;;;;;;;724260;188;916502;-65
2021/01/18 05:01:00;;;;;;;122.80;51.97;;;;;;;;;;735288;187;918728;-66
2021/01/18 05:03:27;;;;;;;129.43;49.10;;;;;;;;;;735256;188;1003890;-64
2021/01/18 05:06:07;;;;;;;116.63;49.90;;;;;;;;;;740970;188;626620;-64
2021/01/18 05:08:54;;;;;;;102.87;43.03;;;;;;;;;;729721;188;919028;-65
2021/01/18 05:11:20;;;;;;;120.60;47.93;;;;;;;;;;729535;190;915614;-65
2021/01/18 05:13:46;;;;;;;105.20;43.30;;;;;;;;;;738857;188;632414;-64
2021/01/18 05:16:12;;;;;;;135.00;48.67;;;;;;;;;;733711;188;713805;-64
2021/01/18 05:18:38;;;;;;;94.80;42.07;;;;;;;;;;740757;190;619109;-66
2021/01/18 05:21:04;;;;;;;118.83;42.60;;;;;;;;;;736987;189;631104;-65
2021/01/18 05:23:29;;;;;;;130.50;50.33;;;;;;;;;;734682;188;914742;-65
2021/01/18 05:26:01;;;;;;;99.93;44.63;;;;;;;;;;731812;188;912440;-62
2021/01/18 05:28:27;;;;;;;105.87;47.23;;;;;;;;;;738462;188;920019;-64
2021/01/18 05:30:53;;;;;;;116.07;43.13;;;;;;;;;;722619;187;2529413;-65
2021/01/18 05:33:18;;;;;;;98.97;45.00;;;;;;;;;;733780;187;915002;-65
2021/01/18 05:35:46;;;;;;;101.10;41.00;;;;;;;;;;737718;188;915298;-66
2021/01/18 05:38:12;;;;;;;114.97;41.67;;;;;;;;;;732873;188;919399;-65
2021/01/18 05:40:41;;;;;;;107.67;47.10;;;;;;;;;;733357;188;919791;-66
2021/01/18 05:43:07;;;;;;;91.40;40.30;;;;;;;;;;735724;188;918599;-64
2021/01/18 05:45:32;;;;;;;113.53;44.60;;;;;;;;;;738330;188;913160;-64
2021/01/18 05:47:58;;;;;;;103.63;43.00;;;;;;;;;;737128;188;920064;-65
2021/01/18 05:50:25;;;;;;;124.80;47.10;;;;;;;;;;732779;188;916139;-65
2021/01/18 05:52:51;;;;;;;142.80;49.27;;;;;;;;;;736424;188;918262;-66
2021/01/18 05:55:20;;;;;;;112.43;46.08;;;;;;;;;;731674;189;921398;-63
2021/01/18 05:57:48;;;;;;;152.52;55.40;;;;;;;;;;727650;188;915493;-64
2021/01/18 06:00:14;;;;;;;140.50;61.10;;;;;;;;;;733190;188;916060;-66
2021/01/18 06:02:40;;;;;;;148.37;62.23;;;;;;;;;;735691;188;914858;-66
2021/01/18 06:05:07;;;;;;;217.43;78.73;;;;;;;;;;733706;188;916238;-65
2021/01/18 06:07:33;;;;;;;203.90;85.70;;;;;;;;;;730367;188;913327;-66
2021/01/18 06:09:59;;;;;;;221.93;86.97;;;;;;;;;;740747;188;918264;-66
2021/01/18 06:12:25;;;;;;;193.53;74.27;;;;;;;;;;733557;188;918900;-66
2021/01/18 06:14:57;;;;;;;204.47;78.43;;;;;;;;;;741017;188;629525;-65
2021/01/18 06:17:23;;;;;;;277.60;116.53;;;;;;;;;;732779;188;918482;-67
2021/01/18 06:19:49;;;;;;;188.07;81.97;;;;;;;;;;735767;188;918739;-67
2021/01/18 06:22:14;;;;;;;167.17;62.83;;;;;;;;;;726229;188;918615;-67
2021/01/18 06:24:40;;;;;;;171.77;67.47;;;;;;;;;;730416;188;918521;-67
2021/01/18 06:27:06;;;;;;;156.07;65.03;;;;;;;;;;736030;188;918741;-64
2021/01/18 06:29:35;;;;;;;156.87;62.27;;;;;;;;;;734851;188;919423;-63
2021/01/18 06:32:01;;;;;;;176.73;67.23;;;;;;;;;;733071;188;921065;-67
2021/01/18 06:34:28;;;;;;;130.30;57.95;;;;;;;;;;736592;187;914489;-62
2021/01/18 06:36:53;;;;;;;181.67;72.43;;;;;;;;;;735885;189;917529;-67
2021/01/18 06:39:19;;;;;;;154.33;69.57;;;;;;;;;;730525;188;1152964;-66
2021/01/18 06:41:45;;;;;;;159.63;65.50;;;;;;;;;;740090;187;620660;-68
2021/01/18 06:44:11;;;;;;;151.70;66.57;;;;;;;;;;739475;188;618869;-65
2021/01/18 06:46:37;;;;;;;169.73;70.78;;;;;;;;;;732270;188;939129;-68
2021/01/18 06:49:03;;;;;;;182.40;77.00;;;;;;;;;;731254;188;920268;-68
2021/01/18 06:51:29;;;;;;;152.27;68.10;;;;;;;;;;740606;188;896299;-67
2021/01/18 06:53:55;;;;;;;166.53;76.23;;;;;;;;;;733142;188;1016924;-66
2021/01/18 06:56:36;;;;;;;150.97;67.30;;;;;;;;;;738932;188;913452;-67
2021/01/18 06:59:03;;;;;;;147.33;59.77;;;;;;;;;;724549;188;1309405;-67
2021/01/18 07:01:29;;;;;;;127.13;60.00;;;;;;;;;;736668;188;917368;-68
2021/01/18 07:03:54;;;;;;;153.05;62.22;;;;;;;;;;730808;188;917770;-67
2021/01/18 07:06:23;;;;;;;174.50;76.13;;;;;;;;;;734650;188;919304;-68
2021/01/18 07:08:49;;;;;;;230.73;101.93;;;;;;;;;;731353;188;918563;-67
2021/01/18 07:11:15;;;;;;;204.50;86.70;;;;;;;;;;739780;188;917836;-67
2021/01/18 07:13:41;;;;;;;183.37;91.10;;;;;;;;;;730848;188;918220;-68
2021/01/18 07:16:07;;;;;;;152.67;70.90;;;;;;;;;;733459;188;918924;-66
2021/01/18 07:18:33;;;;;;;158.63;69.27;;;;;;;;;;743339;187;919665;-67
2021/01/18 07:20:59;;;;;;;151.83;64.23;;;;;;;;;;734644;188;918082;-67
2021/01/18 07:23:25;;;;;;;136.57;59.53;;;;;;;;;;736081;188;918419;-67
2021/01/18 07:25:51;;;;;;;141.75;63.42;;;;;;;;;;733864;188;918694;-65
2021/01/18 07:28:18;;;;;;;132.33;60.40;;;;;;;;;;730426;190;918924;-67
2021/01/18 07:30:44;;;;;;;111.40;53.43;;;;;;;;;;730664;188;1020319;-67
2021/01/18 07:33:10;;;;;;;112.50;54.17;;;;;;;;;;732087;188;918666;-65
2021/01/18 07:35:36;;;;;;;173.30;78.00;;;;;;;;;;736495;188;918344;-67
2021/01/18 07:38:07;;;;;;;156.93;83.00;;;;;;;;;;732523;188;919097;-66
2021/01/18 07:40:33;;;;;;;145.13;65.77;;;;;;;;;;733625;188;919320;-66
2021/01/18 07:43:00;;;;;;;135.48;62.35;;;;;;;;;;738768;188;1021076;-65
2021/01/18 07:45:26;;;;;;;135.03;62.80;;;;;;;;;;725031;191;957876;-66
2021/01/18 07:48:09;;;;;;;143.62;62.35;;;;;;;;;;728104;188;921502;-67
2021/01/18 07:50:35;;;;;;;132.13;60.57;;;;;;;;;;730892;187;919200;-66
2021/01/18 07:53:01;;;;;;;136.90;62.27;;;;;;;;;;732889;187;911654;-65
2021/01/18 07:55:27;;;;;;;123.27;57.60;;;;;;;;;;740693;187;915999;-66
2021/01/18 07:57:53;;;;;;;166.77;64.90;;;;;;;;;;735362;188;917442;-66
2021/01/18 08:00:24;;;;;;;163.37;83.57;;;;;;;;;;732449;188;919303;-65
2021/01/18 08:02:49;;;;;;;145.67;66.80;;;;;;;;;;739305;189;919296;-67
2021/01/18 08:05:20;;;;;;;151.20;70.67;;;;;;;;;;734760;188;928557;-67
2021/01/18 08:07:52;;;;;;;141.17;70.00;;;;;;;;;;731934;187;927999;-66
2021/01/18 08:10:18;;;;;;;154.63;69.57;;;;;;;;;;733468;188;919083;-66
2021/01/18 08:12:44;;;;;;;147.90;63.70;;;;;;;;;;733732;188;922988;-66
2021/01/18 08:15:10;;;;;;;129.03;57.57;;;;;;;;;;736016;188;919011;-67
2021/01/18 08:17:35;;;;;;;130.53;59.13;;;;;;;;;;732527;188;919953;-67
2021/01/18 08:20:07;;;;;;;138.63;60.03;;;;;;;;;;733156;190;919343;-66
2021/01/18 08:22:33;;;;;;;133.10;61.50;;;;;;;;;;742061;188;915766;-67
2021/01/18 08:24:59;;;;;;;136.90;62.30;;;;;;;;;;734622;188;918390;-68
2021/01/18 08:27:30;;;;;;;152.65;67.30;;;;;;;;;;724628;190;1315558;-68
2021/01/18 08:29:56;;;;;;;139.17;60.40;;;;;;;;;;731514;188;918948;-67
2021/01/18 08:32:38;;;;;;;133.23;66.47;;;;;;;;;;725104;189;919071;-67
2021/01/18 08:35:05;;;;;;;144.43;66.97;;;;;;;;;;710975;195;919126;-67
2021/01/18 08:37:31;;;;;;;152.53;64.40;;;;;;;;;;730004;187;918498;-68
2021/01/18 08:40:00;;;;;;;138.33;65.03;;;;;;;;;;732655;187;918610;-67
2021/01/18 08:42:25;;;;;;;154.00;66.50;;;;;;;;;;736001;188;918633;-66
2021/01/18 08:44:57;;;;;;;139.40;61.13;;;;;;;;;;731596;188;1040695;-67
2021/01/18 08:47:29;;;;;;;138.63;62.00;;;;;;;;;;732274;188;920841;-68
2021/01/18 08:49:55;;;;;;;151.37;60.37;;;;;;;;;;730920;188;919297;-68
2021/01/18 08:52:22;;;;;;;146.70;64.10;;;;;;;;;;737666;188;919296;-68
2021/01/18 08:54:48;;;;;;;146.77;65.67;;;;;;;;;;735094;188;918896;-68
2021/01/18 08:57:17;;;;;;;127.57;61.47;;;;;;;;;;734213;188;925679;-68
2021/01/18 08:59:43;;;;;;;126.93;62.70;;;;;;;;;;732823;188;920661;-66
2021/01/18 09:02:09;;;;;;;143.23;66.30;;;;;;;;;;737516;190;919553;-68
2021/01/18 09:04:35;;;;;;;127.70;62.17;;;;;;;;;;733367;187;918691;-68
2021/01/18 09:07:02;;;;;;;166.23;68.80;;;;;;;;;;737808;188;918808;-66
2021/01/18 09:09:28;;;;;;;122.63;65.27;;;;;;;;;;736693;187;917830;-65
2021/01/18 09:11:53;;;;;;;152.18;63.30;;;;;;;;;;728006;188;919473;-67
2021/01/18 09:14:20;;;;;;;159.67;68.50;;;;;;;;;;724950;188;2055558;-68
2021/01/18 09:16:46;;;;;;;153.68;71.60;;;;;;;;;;739832;188;1020303;-67
2021/01/18 09:19:12;;;;;;;161.23;73.00;;;;;;;;;;733116;189;919243;-68
2021/01/18 09:21:38;;;;;;;172.27;75.20;;;;;;;;;;736072;189;918641;-67
2021/01/18 09:24:06;;;;;;;170.83;74.20;;;;;;;;;;732668;188;919002;-68
2021/01/18 09:26:32;;;;;;;160.63;73.13;;;;;;;;;;731912;190;920539;-67
2021/01/18 09:28:58;;;;;;;160.77;71.57;;;;;;;;;;732854;188;918484;-65
2021/01/18 09:31:23;;;;;;;166.17;81.00;;;;;;;;;;735114;188;919291;-68
2021/01/18 09:33:52;;;;;;;186.97;82.37;;;;;;;;;;738170;188;918477;-68
2021/01/18 09:36:17;;;;;;;168.37;78.67;;;;;;;;;;729738;188;1156449;-68
2021/01/18 09:38:42;;;;;;;185.90;80.97;;;;;;;;;;734094;188;919069;-68
2021/01/18 09:41:08;;;;;;;171.70;82.47;;;;;;;;;;733490;188;918800;-68
2021/01/18 09:43:34;;;;;;;157.67;76.60;;;;;;;;;;731637;188;919530;-67
2021/01/18 09:46:01;;;;;;;166.27;76.80;;;;;;;;;;733236;188;943448;-68
2021/01/18 09:48:26;;;;;;;161.03;80.40;;;;;;;;;;733339;188;914829;-67
2021/01/18 09:50:58;;;;;;;171.93;86.32;;;;;;;;;;736386;188;918711;-68
2021/01/18 09:53:24;;;;;;;178.23;77.43;;;;;;;;;;735221;188;920822;-68
2021/01/18 09:55:50;;;;;;;169.02;78.32;;;;;;;;;;734194;188;916976;-69
2021/01/18 09:58:18;;;;;;;164.60;77.50;;;;;;;;;;739435;187;914390;-68
2021/01/18 10:00:43;;;;;;;168.57;79.60;;;;;;;;;;730428;188;914371;-68
2021/01/18 10:03:09;;;;;;;158.17;76.27;;;;;;;;;;733683;188;921600;-69
2021/01/18 10:05:35;;;;;;;156.30;77.70;;;;;;;;;;731643;188;918824;-68
2021/01/18 10:08:02;;;;;;;165.90;76.67;;;;;;;;;;738115;188;918533;-68
2021/01/18 10:10:28;;;;;;;170.20;78.77;;;;;;;;;;733407;188;918914;-69
2021/01/18 10:12:54;;;;;;;159.40;75.30;;;;;;;;;;732825;189;919223;-68
2021/01/18 10:15:21;;;;;;;152.00;70.53;;;;;;;;;;741121;187;918728;-69
2021/01/18 10:17:47;;;;;;;157.80;71.87;;;;;;;;;;733918;187;921922;-68
2021/01/18 10:20:13;;;;;;;166.07;78.10;;;;;;;;;;731999;187;1021257;-69
2021/01/18 10:22:39;;;;;;;168.57;80.07;;;;;;;;;;736244;186;918702;-68
2021/01/18 10:25:07;;;;;;;173.27;73.33;;;;;;;;;;735144;188;919268;-69
2021/01/18 10:27:33;;;;;;;137.23;67.57;;;;;;;;;;733266;188;918644;-68
2021/01/18 10:30:11;;;;;;;167.37;75.03;;;;;;;;;;725912;189;1857349;-66
2021/01/18 10:32:38;;;;;;;155.63;71.70;;;;;;;;;;734783;188;959826;-68
2021/01/18 10:35:23;;;;;;;148.73;66.70;;;;;;;;;;734515;189;918674;-67
2021/01/18 10:37:49;;;;;;;150.50;72.63;;;;;;;;;;732698;190;918912;-67
2021/01/18 10:40:15;;;;;;;149.07;73.03;;;;;;;;;;734098;187;1020622;-67
2021/01/18 10:42:46;;;;;;;157.07;69.17;;;;;;;;;;728536;188;1722263;-67
2021/01/18 10:45:13;;;;;;;159.50;73.10;;;;;;;;;;742860;188;917883;-68
2021/01/18 10:47:39;;;;;;;168.87;74.37;;;;;;;;;;732226;188;919187;-67
2021/01/18 10:50:06;;;;;;;151.53;66.67;;;;;;;;;;734192;188;918901;-67
2021/01/18 10:52:31;;;;;;;177.97;78.87;;;;;;;;;;735188;188;918441;-67
2021/01/18 10:54:59;;;;;;;164.50;74.60;;;;;;;;;;730658;188;918335;-68
2021/01/18 10:57:24;;;;;;;171.43;72.13;;;;;;;;;;733923;188;919273;-68
2021/01/18 10:59:56;;;;;;;165.57;66.83;;;;;;;;;;739310;188;647641;-68
2021/01/18 11:02:24;;;;;;;145.40;64.53;;;;;;;;;;733467;188;918835;-68
2021/01/18 11:04:49;;;;;;;120.53;62.20;;;;;;;;;;735231;190;627608;-69
2021/01/18 11:07:15;;;;;;;127.93;63.30;;;;;;;;;;737037;188;666933;-68
2021/01/18 11:09:41;;;;;;;177.60;68.23;;;;;;;;;;735562;188;640058;-68
2021/01/18 11:12:07;;;;;;;111.63;51.93;;;;;;;;;;740123;188;626604;-68
2021/01/18 11:14:33;;;;;;;101.93;45.75;;;;;;;;;;731369;188;919269;-69
2021/01/18 11:16:59;;;;;;;107.13;45.10;;;;;;;;;;733163;188;915913;-67
2021/01/18 11:19:25;;;;;;;103.93;44.70;;;;;;;;;;736955;188;915058;-68
2021/01/18 11:21:50;;;;;;;117.27;49.97;;;;;;;;;;733015;188;919145;-68
2021/01/18 11:24:16;;;;;;;102.17;46.17;;;;;;;;;;732869;188;1297788;-68
2021/01/18 11:26:42;;;;;;;94.33;49.00;;;;;;;;;;740538;188;919187;-69
2021/01/18 11:29:08;;;;;;;111.43;45.57;;;;;;;;;;732494;187;941431;-68
2021/01/18 11:31:34;;;;;;;85.47;43.37;;;;;;;;;;733119;188;919096;-69
2021/01/18 11:34:00;;;;;;;90.80;41.83;;;;;;;;;;731443;188;919396;-68
2021/01/18 11:36:26;;;;;;;102.10;42.40;;;;;;;;;;740154;188;918324;-68
2021/01/18 11:38:51;;;;;;;98.70;43.37;;;;;;;;;;731109;188;919400;-68
2021/01/18 11:41:17;;;;;;;87.77;42.93;;;;;;;;;;728457;189;919392;-68
2021/01/18 11:43:43;;;;;;;93.13;41.30;;;;;;;;;;743687;188;908505;-67
2021/01/18 11:46:09;;;;;;;87.10;42.03;;;;;;;;;;733447;188;914076;-68
2021/01/18 11:48:35;;;;;;;97.10;39.23;;;;;;;;;;733955;188;919017;-69
2021/01/18 11:51:01;;;;;;;81.60;40.07;;;;;;;;;;733570;188;999502;-69
2021/01/18 11:53:26;;;;;;;87.40;41.20;;;;;;;;;;735212;188;915210;-69
2021/01/18 11:55:52;;;;;;;84.23;38.30;;;;;;;;;;735625;188;915745;-69
2021/01/18 11:58:18;;;;;;;93.70;36.23;;;;;;;;;;735078;188;918944;-68
2021/01/18 12:00:44;;;;;;;90.20;38.15;;;;;;;;;;731507;190;934027;-70
2021/01/18 12:03:10;;;;;;;79.23;37.20;;;;;;;;;;731667;188;958012;-68
2021/01/18 12:05:36;;;;;;;72.70;35.13;;;;;;;;;;733364;188;920888;-70
2021/01/18 12:08:03;;;;;;;89.17;37.30;;;;;;;;;;739097;188;918505;-70
2021/01/18 12:10:29;;;;;;;68.63;30.50;;;;;;;;;;731169;188;1132379;-70
2021/01/18 12:12:55;;;;;;;77.23;36.23;;;;;;;;;;734580;188;919387;-69
2021/01/18 12:15:21;;;;;;;71.30;36.05;;;;;;;;;;732347;188;918868;-70
2021/01/18 12:17:47;;;;;;;69.70;32.70;;;;;;;;;;733667;189;919025;-69
2021/01/18 12:20:13;;;;;;;68.78;31.45;;;;;;;;;;735604;188;918826;-71
2021/01/18 12:22:39;;;;;;;76.30;31.55;;;;;;;;;;726548;188;919124;-68
2021/01/18 12:25:06;;;;;;;59.00;30.90;;;;;;;;;;733472;191;918616;-70
2021/01/18 12:27:31;;;;;;;60.17;31.57;;;;;;;;;;730716;188;919889;-71
2021/01/18 12:29:58;;;;;;;69.22;33.30;;;;;;;;;;733770;188;938476;-71
2021/01/18 12:32:23;;;;;;;64.53;31.97;;;;;;;;;;732837;189;1071302;-70
2021/01/18 12:34:49;;;;;;;83.40;33.55;;;;;;;;;;735776;188;919023;-70
2021/01/18 12:37:15;;;;;;;71.83;27.57;;;;;;;;;;735387;188;918950;-70
2021/01/18 12:39:41;;;;;;;40.88;22.83;;;;;;;;;;740434;187;1021425;-70
2021/01/18 12:42:07;;;;;;;54.77;28.20;;;;;;;;;;729013;187;918911;-70
2021/01/18 12:44:32;;;;;;;53.20;27.33;;;;;;;;;;734954;188;918572;-70
2021/01/18 12:46:58;;;;;;;53.90;26.60;;;;;;;;;;738095;188;918614;-70
2021/01/18 12:49:24;;;;;;;57.20;26.60;;;;;;;;;;737855;187;928845;-70
2021/01/18 12:51:50;;;;;;;49.20;26.52;;;;;;;;;;727716;188;1227869;-70
2021/01/18 12:54:16;;;;;;;58.33;27.57;;;;;;;;;;728580;189;921977;-70
2021/01/18 12:56:45;;;;;;;62.63;28.53;;;;;;;;;;736562;188;876475;-70
2021/01/18 12:59:12;;;;;;;49.23;23.67;;;;;;;;;;736232;188;918821;-70
2021/01/18 13:01:37;;;;;;;55.17;24.00;;;;;;;;;;734390;188;918511;-69
2021/01/18 13:04:02;;;;;;;53.93;25.60;;;;;;;;;;737542;188;919219;-70
2021/01/18 13:06:34;;;;;;;52.23;27.90;;;;;;;;;;733814;188;918824;-69
2021/01/18 13:08:59;;;;;;;59.13;31.80;;;;;;;;;;731433;189;920025;-70
2021/01/18 13:11:25;;;;;;;63.72;28.40;;;;;;;;;;734616;188;917664;-68
2021/01/18 13:13:51;;;;;;;57.03;27.40;;;;;;;;;;738169;188;919760;-69
2021/01/18 13:16:16;;;;;;;63.63;30.30;;;;;;;;;;732556;188;919637;-69
2021/01/18 13:18:42;;;;;;;64.82;29.40;;;;;;;;;;729967;188;1414287;-69
2021/01/18 13:21:08;;;;;;;55.57;29.30;;;;;;;;;;740628;188;913824;-69
2021/01/18 13:23:34;;;;;;;56.07;29.27;;;;;;;;;;732554;188;915435;-69
2021/01/18 13:26:00;;;;;;;76.90;33.93;;;;;;;;;;733292;189;918373;-69
2021/01/18 13:28:26;;;;;;;70.17;32.17;;;;;;;;;;734075;188;918471;-69
2021/01/18 13:30:52;;;;;;;71.12;32.75;;;;;;;;;;731757;188;919006;-69
2021/01/18 13:33:17;;;;;;;57.63;29.23;;;;;;;;;;736707;186;1019592;-69
2021/01/18 13:35:43;;;;;;;49.87;26.43;;;;;;;;;;734061;188;919030;-66
2021/01/18 13:38:09;;;;;;;62.37;28.70;;;;;;;;;;734035;190;918505;-70
2021/01/18 13:40:35;;;;;;;56.50;26.90;;;;;;;;;;730944;188;1229182;-69
2021/01/18 13:43:01;;;;;;;54.63;26.87;;;;;;;;;;733062;188;919142;-69
2021/01/18 13:45:27;;;;;;;71.33;31.00;;;;;;;;;;736131;187;918338;-70
2021/01/18 13:47:53;;;;;;;61.63;29.87;;;;;;;;;;736718;188;918708;-69
2021/01/18 13:50:18;;;;;;;52.47;28.03;;;;;;;;;;734701;187;918934;-70
2021/01/18 13:52:44;;;;;;;66.77;28.70;;;;;;;;;;741169;188;919450;-69